Bei Facebook empfehlenBei Twitter postenGoogle plusPinterest

Das Wetter im Erzgebirge am 05.04.2016

Wetter und Klima am 05.04.2016 Holzhau im Erzgebirge (630m ü.NN)
Letzte gemessene Temperatur und Uhrzeit der Messung23:45:00 Uhr10.10 °C
Temperatur (Maximum / Höchstwert) und Uhrzeit der Messung14:30:00 Uhr22.90 °C
Temperatur (Minimum / Tiefstwert) und Uhrzeit der Messung04:45:003.90 °C
Errechneter Absolutwert der Temperaturschwankungen zwischen Tmin und Tmax des Tages19.00 K
Errechnete Tagesmitteltemperatur12.69896 °C
Gesamt - Niederschlag des Tages (in flüssiger Form)0.51 Liter / m²
Luftdruck (Maximum / Höchstwert) und Zeitpunkt der Messung23:45:00 Uhr1006.20 hPa
Luftdruck (Minimum / Tiefstwert) und Zeitpunkt der Messung16:00:00 Uhr1002.50 hPa
Errechneter Absolutwert der Luftdruckschwankungen des Tages3.70 hPa
Höchste gemessene Windgeschwindigkeit und Uhrzeit der Messung23:45:00 Uhr0.00 km/h
Errechnete Windhäufigkeit in Relation zu den Messwerten des Tages0.00000 %
Niedrigste Windkühle (Windchill) und Zeitpunkt der Messung04:45:00 Uhr3.90 °C
Taupunkt (Maximum / Höchstwert) und Uhrzeit der Messung09:15:00 Uhr14.50 °C
Taupunkt (Minimum / Tiefstwert) und Uhrzeit der Messung04:45:002.70 °C
Anzahl der automatisch eingelesenen Messwerte 96

Detaillierte Wetter- und Klima- Messwerte für den 05.04.2016 in Holzhau im Erzgebirge (630m ü.NN)
ZeitTemperaturLuftdruckRel. LuftfeuchteWindWindrichtungWindchillTaupunktNiederschlag l/m²
23:45:0010.10 °C1006.20 hPa86.00 %7.90 °C0.51
23:30:0010.90 °C1005.70 hPa86.00 %8.70 °C 
23:15:0011.20 °C1005.50 hPa87.00 %9.10 °C 
23:00:0010.90 °C1005.30 hPa88.00 %9.00 °C 
22:45:0010.60 °C1005.30 hPa88.00 %8.70 °C 
22:30:0010.30 °C1005.30 hPa88.00 %8.40 °C 
22:15:0010.20 °C1005.00 hPa88.00 %8.30 °C 
22:00:0010.30 °C1005.00 hPa87.00 %8.20 °C 
21:45:0010.20 °C1005.10 hPa87.00 %8.10 °C 
21:30:009.90 °C1005.10 hPa86.00 %7.70 °C 
21:15:009.80 °C1004.90 hPa85.00 %7.40 °C 
21:00:0010.20 °C1004.90 hPa85.00 %7.80 °C 
20:45:0010.80 °C1004.80 hPa84.00 %8.20 °C 
20:30:0011.10 °C1004.90 hPa84.00 %8.50 °C 
20:15:0011.20 °C1005.00 hPa83.00 %8.40 °C 
20:00:0011.50 °C1004.80 hPa82.00 %8.50 °C 
19:45:0012.20 °C1004.40 hPa81.00 %9.00 °C 
19:30:0012.80 °C1004.30 hPa81.00 %9.60 °C 
19:15:0013.40 °C1004.10 hPa80.00 %10.00 °C 
19:00:0013.80 °C1003.60 hPa78.00 %10.00 °C 
18:45:0014.50 °C1003.40 hPa76.00 %10.30 °C 
18:30:0015.30 °C1003.40 hPa73.00 %10.50 °C 
18:15:0016.40 °C1003.50 hPa72.00 %11.30 °C 
18:00:0017.10 °C1003.50 hPa71.00 %11.80 °C 
17:45:0017.70 °C1003.40 hPa70.00 %12.20 °C 
17:30:0018.10 °C1003.30 hPa69.00 %12.30 °C 
17:15:0018.60 °C1003.20 hPa67.00 %12.40 °C 
17:00:0019.40 °C1003.20 hPa66.00 %12.90 °C 
16:45:0019.80 °C1003.10 hPa65.00 %13.00 °C 
16:30:0020.30 °C1002.80 hPa63.00 %13.00 °C 
16:15:0020.20 °C1002.70 hPa63.00 %12.90 °C 
16:00:0019.70 °C1002.50 hPa63.00 %12.50 °C 
15:45:0019.90 °C1002.60 hPa57.00 %11.10 °C 
15:30:0020.40 °C1002.70 hPa53.00 %10.50 °C 
15:15:0020.60 °C1002.70 hPa49.00 %9.50 °C 
15:00:0021.60 °C1002.60 hPa47.00 %9.80 °C 
14:45:0022.80 °C1002.70 hPa47.00 %10.90 °C 
14:30:0022.90 °C1002.80 hPa48.00 %11.30 °C 
14:15:0022.60 °C1002.80 hPa50.00 %11.70 °C 
14:00:0022.30 °C1002.80 hPa49.00 %11.10 °C 
13:45:0022.00 °C1003.10 hPa50.00 %11.10 °C 
13:30:0021.90 °C1003.10 hPa52.00 %11.60 °C 
13:15:0021.80 °C1003.00 hPa50.00 %10.90 °C 
13:00:0021.80 °C1002.90 hPa52.00 %11.50 °C 
12:45:0021.50 °C1002.90 hPa53.00 %11.50 °C 
12:30:0021.30 °C1003.00 hPa54.00 %11.60 °C 
12:15:0021.30 °C1003.20 hPa55.00 %11.90 °C 
12:00:0020.90 °C1003.40 hPa56.00 %11.80 °C 
11:45:0020.60 °C1003.40 hPa57.00 %11.80 °C 
11:30:0020.30 °C1003.30 hPa56.00 %11.20 °C 
11:15:0020.20 °C1003.50 hPa56.00 %11.10 °C 
11:00:0020.30 °C1003.60 hPa59.00 %12.00 °C 
10:45:0019.90 °C1003.50 hPa61.00 %12.20 °C 
10:30:0019.20 °C1003.40 hPa62.00 %11.70 °C 
10:15:0018.50 °C1003.50 hPa62.00 %11.10 °C 
10:00:0018.30 °C1003.40 hPa63.00 %11.10 °C 
09:45:0018.10 °C1003.50 hPa67.00 %11.90 °C 
09:30:0017.80 °C1003.60 hPa77.00 %13.70 °C 
09:15:0017.20 °C1003.60 hPa84.00 %14.50 °C 
09:00:0016.10 °C1003.50 hPa89.00 %14.30 °C 
08:45:0014.60 °C1003.60 hPa92.00 %13.30 °C 
08:30:0013.10 °C1003.60 hPa93.00 %12.00 °C 
08:15:0011.60 °C1003.60 hPa94.00 %10.70 °C 
08:00:0010.20 °C1003.60 hPa94.00 %9.30 °C 
07:45:008.90 °C1003.60 hPa94.00 %8.00 °C 
07:30:007.90 °C1003.60 hPa94.00 %7.00 °C 
07:15:007.00 °C1003.60 hPa94.00 %6.10 °C 
07:00:006.30 °C1004.00 hPa93.00 %5.30 °C 
06:45:005.50 °C1004.00 hPa93.00 %4.50 °C 
06:30:005.30 °C1004.10 hPa93.00 %4.30 °C 
06:15:005.20 °C1004.20 hPa93.00 %4.20 °C 
06:00:004.90 °C1004.30 hPa93.00 %3.90 °C 
05:45:004.50 °C1004.20 hPa93.00 %3.50 °C 
05:30:005.10 °C1004.20 hPa92.00 %3.90 °C 
05:15:004.90 °C1004.20 hPa93.00 %3.90 °C 
05:00:004.40 °C1004.10 hPa92.00 %3.20 °C 
04:45:003.90 °C1004.00 hPa92.00 %2.70 °C 
04:30:003.90 °C1004.30 hPa92.00 %2.70 °C 
04:15:004.30 °C1004.70 hPa92.00 %3.10 °C 
04:00:004.60 °C1004.30 hPa92.00 %3.40 °C 
03:45:004.40 °C1004.30 hPa92.00 %3.20 °C 
03:30:004.40 °C1004.50 hPa92.00 %3.20 °C 
03:15:004.10 °C1004.30 hPa92.00 %2.90 °C 
03:00:004.10 °C1004.20 hPa92.00 %2.90 °C 
02:45:004.20 °C1004.40 hPa92.00 %3.00 °C 
02:30:004.40 °C1004.70 hPa91.00 %3.10 °C 
02:15:004.30 °C1004.80 hPa91.00 %3.00 °C 
02:00:004.40 °C1004.90 hPa91.00 %3.10 °C 
01:45:004.80 °C1004.90 hPa91.00 %3.50 °C 
01:30:004.50 °C1004.80 hPa91.00 %3.20 °C 
01:15:004.40 °C1004.80 hPa90.00 %2.90 °C 
01:00:004.60 °C1004.90 hPa90.00 %3.10 °C 
00:45:004.50 °C1004.90 hPa90.00 %3.00 °C 
00:30:004.90 °C1005.20 hPa90.00 %3.40 °C 
00:15:005.30 °C1005.20 hPa90.00 %3.80 °C 
00:00:005.10 °C1005.20 hPa89.00 %3.40 °C 

Permanenter Link zu dieser Seite: Wetter im Erzgebirge am 05.04.2016
Performance-Info: Die Erstellung der Seite / Statistik(en) / Tabelle(n) erforderte 5 Datenbankserver-Abfrage(n) und dauerte 121 Millisekunden. (Dieser Messwert ist von der Gesamt-Auslastung des Servers abhängig.)
Erzgebirge - Wetter | Erzgebirge - Wetter (Mobilgeräte) | Komplette Klimadatenbank